Time;durP1;ratioP1;P1;durP2;ratioP2;P2;SDS_P1;SDS_P2;PMS_P1;PMS_P2;Temp;Humidity;BMP_temperature;BMP_pressure;BME280_temperature;BME280_humidity;BME280_pressure;Samples;Min_cycle;Max_cycle;Signal;HPM_P1;HPM_P2
2023/09/19 00:01:07;;;;;;;4.35;2.00;;;;;;;;;;10365580;22;20077;-71
2023/09/19 00:05:08;;;;;;;4.10;1.90;;;;;;;;;;10366592;22;20455;-71
2023/09/19 00:09:10;;;;;;;4.38;2.13;;;;;;;;;;10367275;22;20031;-71
2023/09/19 00:13:13;;;;;;;4.38;1.83;;;;;;;;;;10366371;22;19995;-72
2023/09/19 00:17:15;;;;;;;2.53;2.20;;;;;;;;;;10368382;22;20015;-72
2023/09/19 00:21:16;;;;;;;5.20;2.30;;;;;;;;;;10369335;22;20286;-71
2023/09/19 00:25:16;;;;;;;3.35;2.50;;;;;;;;;;10365343;22;20046;-71
2023/09/19 00:29:17;;;;;;;3.30;2.15;;;;;;;;;;10366015;22;20007;-71
2023/09/19 00:33:19;;;;;;;3.13;2.10;;;;;;;;;;10366731;22;20012;-71
2023/09/19 00:37:19;;;;;;;2.40;1.98;;;;;;;;;;10370100;22;20014;-72
2023/09/19 00:41:20;;;;;;;3.50;2.10;;;;;;;;;;10371335;22;20011;-71
2023/09/19 00:45:21;;;;;;;1.85;1.60;;;;;;;;;;10377330;22;20030;-71
2023/09/19 00:49:22;;;;;;;1.60;1.50;;;;;;;;;;10376279;22;19995;-70
2023/09/19 00:53:23;;;;;;;2.80;1.70;;;;;;;;;;10377317;22;20010;-71
2023/09/19 00:57:23;;;;;;;3.13;1.58;;;;;;;;;;10380145;22;20444;-71
2023/09/19 01:01:25;;;;;;;2.10;1.77;;;;;;;;;;10379170;22;20775;-70
2023/09/19 01:05:25;;;;;;;2.30;1.48;;;;;;;;;;10382021;22;20955;-71
2023/09/19 01:09:26;;;;;;;1.98;1.40;;;;;;;;;;10379103;22;20018;-71
2023/09/19 01:13:34;;;;;;;2.42;1.52;;;;;;;;;;10383371;22;20030;-70
2023/09/19 01:17:43;;;;;;;1.90;1.70;;;;;;;;;;10381600;22;20023;-71
2023/09/19 01:22:02;;;;;;;2.00;1.88;;;;;;;;;;10383240;22;19992;-71
2023/09/19 01:26:22;;;;;;;3.22;1.98;;;;;;;;;;10380122;22;20015;-70
2023/09/19 01:30:27;;;;;;;2.95;2.20;;;;;;;;;;10379149;22;20027;-71
2023/09/19 01:34:42;;;;;;;3.63;1.98;;;;;;;;;;10377144;22;20109;-70
2023/09/19 01:38:43;;;;;;;4.53;1.67;;;;;;;;;;10376328;22;20334;-70
2023/09/19 01:42:45;;;;;;;2.50;1.73;;;;;;;;;;10377318;22;20021;-70
2023/09/19 01:46:47;;;;;;;3.85;2.00;;;;;;;;;;10377343;22;20237;-71
2023/09/19 01:50:59;;;;;;;1.77;1.60;;;;;;;;;;10376875;22;20090;-71
2023/09/19 01:55:05;;;;;;;3.22;1.90;;;;;;;;;;10379064;22;20007;-71
2023/09/19 01:59:07;;;;;;;2.88;1.90;;;;;;;;;;10380444;22;20007;-71
2023/09/19 02:03:08;;;;;;;2.40;1.70;;;;;;;;;;10379302;22;20019;-71
2023/09/19 02:07:08;;;;;;;3.47;1.88;;;;;;;;;;10379502;22;20763;-71
2023/09/19 02:11:08;;;;;;;2.33;1.73;;;;;;;;;;10377970;22;20365;-71
2023/09/19 02:15:09;;;;;;;3.17;1.50;;;;;;;;;;10379194;22;20570;-71
2023/09/19 02:19:09;;;;;;;4.82;1.55;;;;;;;;;;10381104;22;20209;-71
2023/09/19 02:23:10;;;;;;;3.00;1.40;;;;;;;;;;10377829;22;20834;-71
2023/09/19 02:27:12;;;;;;;2.83;1.60;;;;;;;;;;10380630;22;20025;-72
2023/09/19 02:31:12;;;;;;;2.88;1.50;;;;;;;;;;10379258;22;20130;-71
2023/09/19 02:35:14;;;;;;;3.10;1.50;;;;;;;;;;10377580;22;20013;-70
2023/09/19 02:39:14;;;;;;;3.15;1.58;;;;;;;;;;10378537;22;20786;-71
2023/09/19 02:43:15;;;;;;;3.00;1.45;;;;;;;;;;10352410;22;20003;-70
2023/09/19 02:47:16;;;;;;;2.73;1.50;;;;;;;;;;10377797;22;20015;-71
2023/09/19 02:51:16;;;;;;;1.75;1.40;;;;;;;;;;10378628;22;20078;-71
2023/09/19 02:55:19;;;;;;;2.58;1.65;;;;;;;;;;10378991;22;20064;-71
2023/09/19 02:59:19;;;;;;;4.65;1.60;;;;;;;;;;10378662;22;20112;-71
2023/09/19 03:03:19;;;;;;;2.25;1.48;;;;;;;;;;10378564;22;20023;-71
2023/09/19 03:07:19;;;;;;;5.13;1.52;;;;;;;;;;10381710;22;20003;-70
2023/09/19 03:11:22;;;;;;;4.15;1.63;;;;;;;;;;10374580;22;20069;-71
2023/09/19 03:15:23;;;;;;;2.23;1.90;;;;;;;;;;10378896;22;20046;-71
2023/09/19 03:19:23;;;;;;;3.15;1.67;;;;;;;;;;10378045;22;20003;-70
2023/09/19 03:23:23;;;;;;;4.57;1.40;;;;;;;;;;10378909;22;20007;-71
2023/09/19 03:27:23;;;;;;;2.78;1.38;;;;;;;;;;10378398;22;20226;-71
2023/09/19 03:31:24;;;;;;;6.17;1.63;;;;;;;;;;10375604;22;20073;-71
2023/09/19 03:35:24;;;;;;;1.98;1.60;;;;;;;;;;10379241;22;20288;-70
2023/09/19 03:39:24;;;;;;;3.63;1.50;;;;;;;;;;10377019;22;20030;-71
2023/09/19 03:43:24;;;;;;;6.45;2.03;;;;;;;;;;10379953;22;19995;-71
2023/09/19 03:47:24;;;;;;;2.63;1.40;;;;;;;;;;10380221;22;20095;-70
2023/09/19 03:51:25;;;;;;;5.22;1.38;;;;;;;;;;10381519;22;19999;-71
2023/09/19 03:55:25;;;;;;;3.15;1.55;;;;;;;;;;10383831;22;20010;-71
2023/09/19 03:59:25;;;;;;;2.85;1.48;;;;;;;;;;10381937;22;20003;-71
2023/09/19 04:03:34;;;;;;;4.03;1.58;;;;;;;;;;10382774;22;20383;-70
2023/09/19 04:07:34;;;;;;;3.95;1.70;;;;;;;;;;10382835;22;20093;-70
2023/09/19 04:11:34;;;;;;;2.83;1.60;;;;;;;;;;10381794;22;20003;-71
2023/09/19 04:15:35;;;;;;;2.28;1.40;;;;;;;;;;10383436;22;20945;-71
2023/09/19 04:19:35;;;;;;;5.07;1.80;;;;;;;;;;10384949;22;20007;-71
2023/09/19 04:23:35;;;;;;;6.13;1.60;;;;;;;;;;10384351;22;20061;-71
2023/09/19 04:27:35;;;;;;;3.30;1.60;;;;;;;;;;10383514;22;20039;-71
2023/09/19 04:31:37;;;;;;;5.05;1.77;;;;;;;;;;10382796;22;20597;-71
2023/09/19 04:35:38;;;;;;;4.00;1.60;;;;;;;;;;10381765;22;20518;-71
2023/09/19 04:39:39;;;;;;;2.95;1.45;;;;;;;;;;10385650;22;19998;-71
2023/09/19 04:43:39;;;;;;;4.30;1.63;;;;;;;;;;10383019;22;20042;-71
2023/09/19 04:47:39;;;;;;;3.30;1.40;;;;;;;;;;10379581;22;20019;-71
2023/09/19 04:51:40;;;;;;;4.03;1.70;;;;;;;;;;10382846;22;20007;-71
2023/09/19 04:55:40;;;;;;;2.55;1.20;;;;;;;;;;10382023;22;19999;-71
2023/09/19 04:59:41;;;;;;;2.55;1.40;;;;;;;;;;10375501;22;20011;-74
2023/09/19 05:03:42;;;;;;;4.60;1.52;;;;;;;;;;10379187;22;20011;-74
2023/09/19 05:07:42;;;;;;;2.88;1.17;;;;;;;;;;10383148;22;20003;-74
2023/09/19 05:11:43;;;;;;;3.83;1.20;;;;;;;;;;10378568;22;20054;-75
2023/09/19 05:15:44;;;;;;;5.05;1.40;;;;;;;;;;10380404;22;20011;-74
2023/09/19 05:19:45;;;;;;;3.55;1.35;;;;;;;;;;10381070;22;20063;-74
2023/09/19 05:23:45;;;;;;;5.13;1.42;;;;;;;;;;10376769;22;20080;-74
2023/09/19 05:27:45;;;;;;;2.92;1.40;;;;;;;;;;10383000;22;20000;-74
2023/09/19 05:31:46;;;;;;;3.25;1.40;;;;;;;;;;10381330;22;20019;-74
2023/09/19 05:35:50;;;;;;;4.20;1.38;;;;;;;;;;10379056;22;20372;-71
2023/09/19 05:39:50;;;;;;;3.33;1.40;;;;;;;;;;10376595;22;20329;-70
2023/09/19 05:43:50;;;;;;;2.65;1.30;;;;;;;;;;10380411;22;19995;-71
2023/09/19 05:47:55;;;;;;;4.65;1.70;;;;;;;;;;10379324;22;20029;-71
2023/09/19 05:51:58;;;;;;;6.57;1.67;;;;;;;;;;10377581;22;20004;-70
2023/09/19 05:56:00;;;;;;;6.25;1.48;;;;;;;;;;10378781;22;20007;-70
2023/09/19 06:00:01;;;;;;;6.80;2.15;;;;;;;;;;10373183;22;20703;-72
2023/09/19 06:04:01;;;;;;;2.90;1.55;;;;;;;;;;10372923;22;20384;-72
2023/09/19 06:08:07;;;;;;;3.20;1.85;;;;;;;;;;10378320;22;20045;-72
2023/09/19 06:12:08;;;;;;;6.50;1.92;;;;;;;;;;10378052;22;20003;-74
2023/09/19 06:16:09;;;;;;;6.57;2.10;;;;;;;;;;10382741;22;20405;-75
2023/09/19 06:20:12;;;;;;;3.90;1.77;;;;;;;;;;10378467;22;20650;-75
2023/09/19 06:24:12;;;;;;;6.45;2.00;;;;;;;;;;10381226;22;20007;-74
2023/09/19 06:28:13;;;;;;;6.33;2.43;;;;;;;;;;10380624;22;20006;-74
2023/09/19 06:32:13;;;;;;;4.28;1.85;;;;;;;;;;10375802;22;20030;-74
2023/09/19 06:36:13;;;;;;;4.35;1.83;;;;;;;;;;10379541;22;20080;-74
2023/09/19 06:40:14;;;;;;;5.20;2.25;;;;;;;;;;10375416;22;19999;-75
2023/09/19 06:44:14;;;;;;;6.63;1.85;;;;;;;;;;10378799;22;20065;-75
2023/09/19 06:48:15;;;;;;;9.25;1.77;;;;;;;;;;10373874;22;20472;-75
2023/09/19 06:52:15;;;;;;;10.05;1.70;;;;;;;;;;10374736;22;20010;-74
2023/09/19 06:56:15;;;;;;;5.43;1.58;;;;;;;;;;10375359;22;20011;-75
2023/09/19 07:00:18;;;;;;;4.28;1.60;;;;;;;;;;10378904;22;20018;-75
2023/09/19 07:04:19;;;;;;;4.70;1.73;;;;;;;;;;10382366;22;20403;-74
2023/09/19 07:08:19;;;;;;;3.70;1.50;;;;;;;;;;10381074;22;20432;-74
2023/09/19 07:12:20;;;;;;;4.88;1.80;;;;;;;;;;10376985;22;19995;-75
2023/09/19 07:16:29;;;;;;;5.10;1.63;;;;;;;;;;10379304;22;20011;-75
2023/09/19 07:20:31;;;;;;;5.40;1.80;;;;;;;;;;10376740;22;20641;-75
2023/09/19 07:24:32;;;;;;;4.55;1.75;;;;;;;;;;10349861;22;20015;-74
2023/09/19 07:28:34;;;;;;;4.82;1.88;;;;;;;;;;10378223;22;20004;-75
2023/09/19 07:32:38;;;;;;;7.75;1.95;;;;;;;;;;10375881;22;20007;-75
2023/09/19 07:36:38;;;;;;;6.72;1.63;;;;;;;;;;10379282;22;20066;-75
2023/09/19 07:40:39;;;;;;;7.32;1.70;;;;;;;;;;10377578;22;20007;-75
2023/09/19 07:44:39;;;;;;;8.52;1.85;;;;;;;;;;10375047;22;20019;-74
2023/09/19 07:48:40;;;;;;;6.80;2.23;;;;;;;;;;10378753;22;20011;-74
2023/09/19 07:52:40;;;;;;;6.88;2.10;;;;;;;;;;10376783;22;19999;-73
2023/09/19 07:56:41;;;;;;;6.63;2.05;;;;;;;;;;10379149;22;19995;-75
2023/09/19 08:00:41;;;;;;;5.13;1.90;;;;;;;;;;10379448;22;20125;-74
2023/09/19 08:04:42;;;;;;;5.72;2.30;;;;;;;;;;10377693;22;20003;-74
2023/09/19 08:08:43;;;;;;;7.00;1.73;;;;;;;;;;10368255;22;20057;-75
2023/09/19 08:12:46;;;;;;;5.20;2.00;;;;;;;;;;10373482;22;20014;-74
2023/09/19 08:16:47;;;;;;;5.85;2.05;;;;;;;;;;10377287;22;20034;-74
2023/09/19 08:20:50;;;;;;;5.95;1.73;;;;;;;;;;10378788;22;20720;-74
2023/09/19 08:24:51;;;;;;;5.82;2.22;;;;;;;;;;10374836;22;20011;-74
2023/09/19 08:28:51;;;;;;;6.88;2.00;;;;;;;;;;10375725;22;20010;-74
2023/09/19 08:32:51;;;;;;;7.95;1.90;;;;;;;;;;10378403;22;20008;-74
2023/09/19 08:37:00;;;;;;;5.95;2.08;;;;;;;;;;10380877;22;20003;-75
2023/09/19 08:41:04;;;;;;;4.78;1.70;;;;;;;;;;10379715;22;20106;-75
2023/09/19 08:45:05;;;;;;;6.00;1.95;;;;;;;;;;10384138;22;20003;-75
2023/09/19 08:49:12;;;;;;;5.05;2.03;;;;;;;;;;10378122;22;20020;-75
2023/09/19 08:53:15;;;;;;;6.40;1.80;;;;;;;;;;10382459;22;20590;-75
2023/09/19 08:57:21;;;;;;;6.63;2.00;;;;;;;;;;10382326;22;20014;-74
2023/09/19 09:01:24;;;;;;;12.63;1.98;;;;;;;;;;10378408;22;20008;-75
2023/09/19 09:05:26;;;;;;;;;;;;;;;;;;10383234;22;20165;-75
2023/09/19 09:09:27;;;;;;;14.45;2.25;;;;;;;;;;10381841;22;20739;-74
2023/09/19 09:13:28;;;;;;;6.97;2.15;;;;;;;;;;10384451;22;19995;-74
2023/09/19 09:17:28;;;;;;;4.53;1.90;;;;;;;;;;10379241;22;20114;-74
2023/09/19 09:21:28;;;;;;;6.00;2.10;;;;;;;;;;10378540;22;20288;-74
2023/09/19 09:26:09;;;;;;;9.23;2.08;;;;;;;;;;10380580;22;20018;-74
2023/09/19 09:30:09;;;;;;;6.55;1.92;;;;;;;;;;10198366;23;20016;-74
2023/09/19 09:34:13;;;;;;;7.90;1.80;;;;;;;;;;10298448;22;20000;-75
2023/09/19 09:38:17;;;;;;;18.90;2.50;;;;;;;;;;10381544;22;19997;-74
2023/09/19 09:42:32;;;;;;;8.70;2.28;;;;;;;;;;10378863;22;20775;-74
2023/09/19 09:50:56;;;;;;;8.63;2.00;;;;;;;;;;10333130;22;20011;-74
2023/09/19 09:55:05;;;;;;;8.77;2.10;;;;;;;;;;10380294;22;20098;-74
2023/09/19 09:59:05;;;;;;;5.88;1.75;;;;;;;;;;10381533;22;20662;-74
2023/09/19 10:03:21;;;;;;;8.65;1.90;;;;;;;;;;10378950;22;20011;-74
2023/09/19 10:07:49;;;;;;;6.35;2.05;;;;;;;;;;10380491;22;20103;-74
2023/09/19 10:12:02;;;;;;;6.00;1.92;;;;;;;;;;10381168;22;20428;-74
2023/09/19 10:16:03;;;;;;;;;;;;;;;;;;10378079;22;20015;-74
2023/09/19 10:20:18;;;;;;;5.13;1.77;;;;;;;;;;10382245;22;19907;-74
2023/09/19 10:24:18;;;;;;;7.03;1.88;;;;;;;;;;10379701;22;20929;-74
2023/09/19 10:28:22;;;;;;;8.13;2.05;;;;;;;;;;10380057;22;20046;-74
2023/09/19 10:32:23;;;;;;;8.50;1.98;;;;;;;;;;10381125;22;20971;-74
2023/09/19 10:36:25;;;;;;;5.80;1.80;;;;;;;;;;10379633;22;20384;-73
2023/09/19 10:40:30;;;;;;;7.85;1.85;;;;;;;;;;10378207;22;20106;-73
2023/09/19 10:44:32;;;;;;;5.70;1.90;;;;;;;;;;10378169;22;20003;-73
2023/09/19 10:48:32;;;;;;;7.07;2.05;;;;;;;;;;10377732;22;20035;-74
2023/09/19 10:52:34;;;;;;;5.82;1.70;;;;;;;;;;10374489;22;20030;-74
2023/09/19 10:56:41;;;;;;;6.30;1.80;;;;;;;;;;10378831;22;20009;-74
2023/09/19 11:00:52;;;;;;;6.65;1.65;;;;;;;;;;10380486;22;20018;-73
2023/09/19 11:04:54;;;;;;;5.13;1.52;;;;;;;;;;10377662;22;20007;-73
2023/09/19 11:08:56;;;;;;;3.83;1.60;;;;;;;;;;10375373;22;20082;-74
2023/09/19 11:12:58;;;;;;;7.18;1.90;;;;;;;;;;10376736;22;20003;-74
2023/09/19 11:17:07;;;;;;;6.18;1.90;;;;;;;;;;10378964;22;20019;-74
2023/09/19 11:21:29;;;;;;;3.97;1.60;;;;;;;;;;10377687;22;20018;-74
2023/09/19 11:25:29;;;;;;;7.50;1.83;;;;;;;;;;10379130;22;20011;-73
2023/09/19 11:29:31;;;;;;;9.13;2.00;;;;;;;;;;10349596;22;20045;-74
2023/09/19 11:33:33;;;;;;;5.03;1.67;;;;;;;;;;10378289;22;20122;-73
2023/09/19 11:37:33;;;;;;;4.25;1.70;;;;;;;;;;10381695;22;19995;-73
2023/09/19 11:41:37;;;;;;;4.82;1.50;;;;;;;;;;10375726;22;20593;-73
2023/09/19 11:45:46;;;;;;;4.22;1.52;;;;;;;;;;10374861;22;20102;-73
2023/09/19 11:49:48;;;;;;;5.25;1.73;;;;;;;;;;10375176;22;20031;-73
2023/09/19 11:53:49;;;;;;;5.47;1.70;;;;;;;;;;10378649;22;19995;-73
2023/09/19 11:57:50;;;;;;;4.50;1.70;;;;;;;;;;10378175;22;20232;-72
2023/09/19 12:01:58;;;;;;;4.90;1.70;;;;;;;;;;10378606;22;20557;-73
2023/09/19 12:05:59;;;;;;;5.20;1.60;;;;;;;;;;10377735;22;20064;-73
2023/09/19 12:10:04;;;;;;;4.47;1.50;;;;;;;;;;10377584;22;20039;-73
2023/09/19 12:14:04;;;;;;;3.78;1.48;;;;;;;;;;10377896;22;20004;-73
2023/09/19 12:18:05;;;;;;;5.23;1.50;;;;;;;;;;10380500;22;20342;-73
2023/09/19 12:22:05;;;;;;;3.88;1.35;;;;;;;;;;10380057;22;19999;-73
2023/09/19 12:26:12;;;;;;;4.28;1.40;;;;;;;;;;10378412;22;20018;-73
2023/09/19 12:30:17;;;;;;;5.72;1.67;;;;;;;;;;10380466;22;19999;-74
2023/09/19 12:34:22;;;;;;;3.50;1.27;;;;;;;;;;10380261;22;19988;-73
2023/09/19 12:38:29;;;;;;;5.57;1.50;;;;;;;;;;10377907;22;20561;-73
2023/09/19 12:42:38;;;;;;;7.93;1.58;;;;;;;;;;10433832;22;20025;-73
2023/09/19 12:46:39;;;;;;;5.35;1.20;;;;;;;;;;10449715;22;20011;-73
2023/09/19 12:51:05;;;;;;;2.53;1.20;;;;;;;;;;10444144;22;20456;-73
2023/09/19 12:55:07;;;;;;;3.40;1.60;;;;;;;;;;10424569;22;20029;-73
2023/09/19 12:59:09;;;;;;;3.25;1.35;;;;;;;;;;10435634;22;20011;-73
2023/09/19 13:03:28;;;;;;;2.10;1.35;;;;;;;;;;10435701;22;20068;-73
2023/09/19 13:07:49;;;;;;;2.88;1.40;;;;;;;;;;10435841;22;20006;-73
2023/09/19 13:11:59;;;;;;;1.75;1.13;;;;;;;;;;10433534;22;20823;-74
2023/09/19 13:16:01;;;;;;;3.35;1.60;;;;;;;;;;10383842;22;20515;-73
2023/09/19 13:20:02;;;;;;;4.55;1.50;;;;;;;;;;10380287;22;20487;-73
2023/09/19 13:24:19;;;;;;;3.45;1.42;;;;;;;;;;10377220;22;20019;-73
2023/09/19 13:28:19;;;;;;;4.47;1.40;;;;;;;;;;10378920;22;20003;-73
2023/09/19 13:32:20;;;;;;;3.37;1.60;;;;;;;;;;10381864;22;20145;-73
2023/09/19 13:36:20;;;;;;;3.92;1.20;;;;;;;;;;10379667;22;20965;-73
2023/09/19 13:40:20;;;;;;;2.53;1.40;;;;;;;;;;10380018;22;20011;-73
2023/09/19 13:44:20;;;;;;;3.53;1.40;;;;;;;;;;10381244;22;20022;-73
2023/09/19 13:48:21;;;;;;;7.30;1.50;;;;;;;;;;10379402;22;20051;-72
2023/09/19 13:52:23;;;;;;;4.28;1.35;;;;;;;;;;10371945;22;19999;-73
2023/09/19 13:56:24;;;;;;;3.95;1.35;;;;;;;;;;10379644;22;20714;-73
2023/09/19 14:00:25;;;;;;;5.13;1.55;;;;;;;;;;10377639;22;20086;-73
2023/09/19 14:04:25;;;;;;;6.80;1.40;;;;;;;;;;10386465;22;20647;-73
2023/09/19 14:08:25;;;;;;;3.92;1.52;;;;;;;;;;10386049;22;20081;-73
2023/09/19 14:12:25;;;;;;;7.60;1.50;;;;;;;;;;10377424;22;20034;-73
2023/09/19 14:16:29;;;;;;;4.37;1.40;;;;;;;;;;10383408;22;20262;-73
2023/09/19 14:20:31;;;;;;;2.85;1.13;;;;;;;;;;10381682;22;20003;-73
2023/09/19 14:24:31;;;;;;;4.40;1.30;;;;;;;;;;10379862;22;20034;-73
2023/09/19 14:28:33;;;;;;;2.72;1.10;;;;;;;;;;10383594;22;20753;-73
2023/09/19 14:32:34;;;;;;;1.55;1.20;;;;;;;;;;10380780;22;20018;-73
2023/09/19 14:36:35;;;;;;;2.35;1.00;;;;;;;;;;10381968;22;19999;-73
2023/09/19 14:40:37;;;;;;;3.78;1.17;;;;;;;;;;10383375;22;20090;-73
2023/09/19 14:44:40;;;;;;;2.97;1.08;;;;;;;;;;10381929;22;20169;-73
2023/09/19 14:48:40;;;;;;;1.20;1.00;;;;;;;;;;10383689;22;20090;-73
2023/09/19 14:52:40;;;;;;;3.03;1.17;;;;;;;;;;10354961;22;20015;-73
2023/09/19 14:56:41;;;;;;;4.32;1.25;;;;;;;;;;10380901;22;19987;-73
2023/09/19 15:00:41;;;;;;;1.83;1.10;;;;;;;;;;10381372;22;20065;-73
2023/09/19 15:04:41;;;;;;;2.37;1.17;;;;;;;;;;10379233;22;20058;-73
2023/09/19 15:08:47;;;;;;;2.25;1.20;;;;;;;;;;10380021;22;20007;-73
2023/09/19 15:12:47;;;;;;;3.28;1.10;;;;;;;;;;10379363;22;20003;-73
2023/09/19 15:16:48;;;;;;;3.50;1.13;;;;;;;;;;10378332;22;20599;-73
2023/09/19 15:20:48;;;;;;;1.85;1.08;;;;;;;;;;10379938;22;20050;-73
2023/09/19 15:24:49;;;;;;;2.67;1.20;;;;;;;;;;10379709;22;20011;-73
2023/09/19 15:28:49;;;;;;;2.38;0.80;;;;;;;;;;10380479;22;20031;-73
2023/09/19 15:32:51;;;;;;;2.22;1.08;;;;;;;;;;10377030;22;20738;-73
2023/09/19 15:36:51;;;;;;;5.25;1.25;;;;;;;;;;10378001;22;20023;-73
2023/09/19 15:40:52;;;;;;;4.57;1.93;;;;;;;;;;10376684;22;20068;-73
2023/09/19 15:44:52;;;;;;;1.88;1.10;;;;;;;;;;10379885;22;20014;-73
2023/09/19 15:48:53;;;;;;;2.77;1.10;;;;;;;;;;10382040;22;20015;-73
2023/09/19 15:52:57;;;;;;;1.92;1.00;;;;;;;;;;10377609;22;20730;-74
2023/09/19 15:56:59;;;;;;;3.28;1.02;;;;;;;;;;10380332;22;20023;-74
2023/09/19 16:01:04;;;;;;;3.13;1.13;;;;;;;;;;10378646;22;20090;-73
2023/09/19 16:05:07;;;;;;;1.83;1.00;;;;;;;;;;10370873;22;20003;-74
2023/09/19 16:09:08;;;;;;;2.47;1.08;;;;;;;;;;10379073;22;20010;-73
2023/09/19 16:13:09;;;;;;;1.38;0.95;;;;;;;;;;10376970;22;20607;-73
2023/09/19 16:17:10;;;;;;;2.05;0.98;;;;;;;;;;10378398;22;20018;-73
2023/09/19 16:21:11;;;;;;;2.13;1.13;;;;;;;;;;10378195;22;20007;-73
2023/09/19 16:25:11;;;;;;;3.17;1.05;;;;;;;;;;10382565;22;20026;-73
2023/09/19 16:29:12;;;;;;;1.90;0.98;;;;;;;;;;10381250;22;20519;-73
2023/09/19 16:33:12;;;;;;;1.15;0.88;;;;;;;;;;10374930;22;20663;-73
2023/09/19 16:37:14;;;;;;;1.10;1.00;;;;;;;;;;10380499;22;20000;-73
2023/09/19 16:41:16;;;;;;;1.33;1.10;;;;;;;;;;10377645;22;20003;-73
2023/09/19 16:45:16;;;;;;;2.90;1.02;;;;;;;;;;10381324;22;20049;-73
2023/09/19 16:49:16;;;;;;;1.40;0.90;;;;;;;;;;10377784;22;20118;-73
2023/09/19 16:53:17;;;;;;;1.43;1.10;;;;;;;;;;10380288;22;19999;-73
2023/09/19 16:57:17;;;;;;;2.42;1.00;;;;;;;;;;10382836;22;20096;-73
2023/09/19 17:01:19;;;;;;;2.25;1.00;;;;;;;;;;10380711;22;20122;-73
2023/09/19 17:05:19;;;;;;;2.50;0.90;;;;;;;;;;10381591;22;20432;-73
2023/09/19 17:09:19;;;;;;;2.55;0.88;;;;;;;;;;10381383;22;20007;-72
2023/09/19 17:13:19;;;;;;;2.13;0.95;;;;;;;;;;10383138;22;20053;-73
2023/09/19 17:17:20;;;;;;;4.32;1.20;;;;;;;;;;10381883;22;20007;-73
2023/09/19 17:21:21;;;;;;;4.30;1.20;;;;;;;;;;10380692;22;19999;-74
2023/09/19 17:25:22;;;;;;;3.72;1.25;;;;;;;;;;10378124;22;20113;-74
2023/09/19 17:29:22;;;;;;;1.40;0.85;;;;;;;;;;10381401;22;20006;-73
2023/09/19 17:33:23;;;;;;;1.35;0.95;;;;;;;;;;10378886;22;20007;-73
2023/09/19 17:37:24;;;;;;;2.55;1.10;;;;;;;;;;10378577;22;19995;-73
2023/09/19 17:41:24;;;;;;;2.42;0.90;;;;;;;;;;10379925;22;20017;-73
2023/09/19 17:45:24;;;;;;;3.05;1.15;;;;;;;;;;10379669;22;20101;-73
2023/09/19 17:49:24;;;;;;;1.75;1.10;;;;;;;;;;10382698;22;20051;-73
2023/09/19 17:53:25;;;;;;;1.63;0.90;;;;;;;;;;10382100;22;20000;-73
2023/09/19 17:57:26;;;;;;;1.35;0.85;;;;;;;;;;10381929;22;20006;-73
2023/09/19 18:01:31;;;;;;;1.85;0.80;;;;;;;;;;10378054;22;20007;-73
2023/09/19 18:05:32;;;;;;;2.65;1.05;;;;;;;;;;10381545;22;19999;-74
2023/09/19 18:09:32;;;;;;;2.65;1.25;;;;;;;;;;10377485;22;20017;-73
2023/09/19 18:13:32;;;;;;;2.10;0.88;;;;;;;;;;10381141;22;20360;-73
2023/09/19 18:17:33;;;;;;;3.10;0.98;;;;;;;;;;10379846;22;20019;-73
2023/09/19 18:21:33;;;;;;;0.82;0.80;;;;;;;;;;10379504;22;20425;-73
2023/09/19 18:25:34;;;;;;;1.70;0.93;;;;;;;;;;10380399;22;20546;-72
2023/09/19 18:29:34;;;;;;;2.08;1.00;;;;;;;;;;10380782;22;20005;-70
2023/09/19 18:33:38;;;;;;;2.20;0.90;;;;;;;;;;10378034;22;20108;-70
2023/09/19 18:37:38;;;;;;;0.90;0.80;;;;;;;;;;10377440;22;20098;-71
2023/09/19 18:41:38;;;;;;;1.92;1.08;;;;;;;;;;10377848;22;20014;-71
2023/09/19 18:45:38;;;;;;;3.17;0.93;;;;;;;;;;10378551;22;20447;-71
2023/09/19 18:49:39;;;;;;;2.17;1.02;;;;;;;;;;10378766;22;20402;-71
2023/09/19 18:53:39;;;;;;;2.33;0.80;;;;;;;;;;10378159;22;20436;-71
2023/09/19 18:57:39;;;;;;;3.03;1.00;;;;;;;;;;10379120;22;20647;-71
2023/09/19 19:01:39;;;;;;;1.13;0.90;;;;;;;;;;10379134;22;20017;-71
2023/09/19 19:05:40;;;;;;;1.50;0.80;;;;;;;;;;10376705;22;20507;-70
2023/09/19 19:09:40;;;;;;;1.63;0.90;;;;;;;;;;10370818;22;20014;-71
2023/09/19 19:13:40;;;;;;;1.42;1.00;;;;;;;;;;10376028;22;20003;-70
2023/09/19 19:17:43;;;;;;;1.53;1.00;;;;;;;;;;10376168;22;20081;-70
2023/09/19 19:21:43;;;;;;;3.72;0.80;;;;;;;;;;10372657;22;20723;-71
2023/09/19 19:25:47;;;;;;;1.90;0.93;;;;;;;;;;10376503;22;20122;-71
2023/09/19 19:29:48;;;;;;;0.98;0.88;;;;;;;;;;10375348;22;20011;-71
2023/09/19 19:33:50;;;;;;;1.13;0.98;;;;;;;;;;10369066;22;20022;-70
2023/09/19 19:37:51;;;;;;;2.45;0.93;;;;;;;;;;10372078;22;20003;-70
2023/09/19 19:41:51;;;;;;;2.05;1.00;;;;;;;;;;10370234;22;20010;-71
2023/09/19 19:45:58;;;;;;;2.58;1.00;;;;;;;;;;10371858;22;20015;-70
2023/09/19 19:49:58;;;;;;;2.63;0.90;;;;;;;;;;10367784;22;20638;-70
2023/09/19 19:54:00;;;;;;;2.70;1.00;;;;;;;;;;10373252;22;20112;-71
2023/09/19 19:58:01;;;;;;;1.17;0.90;;;;;;;;;;10372693;22;20360;-70
2023/09/19 20:02:01;;;;;;;3.20;1.00;;;;;;;;;;10369329;22;20689;-70
2023/09/19 20:06:02;;;;;;;2.90;0.98;;;;;;;;;;10370063;22;20482;-71
2023/09/19 20:10:03;;;;;;;1.90;0.88;;;;;;;;;;10367541;22;20019;-70
2023/09/19 20:14:04;;;;;;;3.30;1.20;;;;;;;;;;10371627;22;20026;-70
2023/09/19 20:18:12;;;;;;;1.00;0.85;;;;;;;;;;10369295;22;20226;-71
2023/09/19 20:22:13;;;;;;;1.30;1.10;;;;;;;;;;10370466;22;20007;-71
2023/09/19 20:26:13;;;;;;;0.80;0.80;;;;;;;;;;10376700;22;20099;-71
2023/09/19 20:30:14;;;;;;;0.85;0.68;;;;;;;;;;10374042;22;20042;-71
2023/09/19 20:34:14;;;;;;;1.83;1.10;;;;;;;;;;10374866;22;19999;-70
2023/09/19 20:38:14;;;;;;;1.35;1.08;;;;;;;;;;10373550;22;20007;-70
2023/09/19 20:42:15;;;;;;;3.08;0.95;;;;;;;;;;10370954;22;19999;-70
2023/09/19 20:46:16;;;;;;;0.88;0.80;;;;;;;;;;10375684;22;20039;-71
2023/09/19 20:50:16;;;;;;;1.57;0.83;;;;;;;;;;10378920;22;20007;-71
2023/09/19 20:54:17;;;;;;;0.90;0.70;;;;;;;;;;10378036;22;20230;-71
2023/09/19 20:58:17;;;;;;;1.98;1.00;;;;;;;;;;10378087;22;20010;-71
2023/09/19 21:02:17;;;;;;;1.87;0.80;;;;;;;;;;10377104;22;20015;-71
2023/09/19 21:06:17;;;;;;;2.97;0.90;;;;;;;;;;10378971;22;19992;-70
2023/09/19 21:10:18;;;;;;;1.35;0.77;;;;;;;;;;10379120;22;20003;-71
2023/09/19 21:14:19;;;;;;;1.35;0.90;;;;;;;;;;10378155;22;19995;-70
2023/09/19 21:18:19;;;;;;;1.27;0.80;;;;;;;;;;10376681;22;20012;-71
2023/09/19 21:22:20;;;;;;;1.13;1.02;;;;;;;;;;10375617;22;20010;-70
2023/09/19 21:26:20;;;;;;;1.97;1.00;;;;;;;;;;10378355;22;20114;-70
2023/09/19 21:30:20;;;;;;;1.42;0.80;;;;;;;;;;10380916;22;20008;-70
2023/09/19 21:34:20;;;;;;;2.83;1.00;;;;;;;;;;10380494;22;20953;-70
2023/09/19 21:38:21;;;;;;;1.60;0.90;;;;;;;;;;10381049;22;20018;-70
2023/09/19 21:42:22;;;;;;;5.77;1.10;;;;;;;;;;10377620;22;20778;-70
2023/09/19 21:46:22;;;;;;;1.38;1.10;;;;;;;;;;10382628;22;20142;-70
2023/09/19 21:50:25;;;;;;;1.90;1.10;;;;;;;;;;10376870;22;20082;-70
2023/09/19 21:54:25;;;;;;;2.00;0.90;;;;;;;;;;10379298;22;20019;-70
2023/09/19 21:58:26;;;;;;;2.88;1.10;;;;;;;;;;10383027;22;20002;-70
2023/09/19 22:02:26;;;;;;;4.35;1.05;;;;;;;;;;10378000;22;20018;-70
2023/09/19 22:06:26;;;;;;;1.55;1.23;;;;;;;;;;10377711;22;20031;-70
2023/09/19 22:10:27;;;;;;;1.45;1.05;;;;;;;;;;10376483;22;20007;-70
2023/09/19 22:14:30;;;;;;;2.55;1.13;;;;;;;;;;10378047;22;19999;-70
2023/09/19 22:18:30;;;;;;;2.28;1.20;;;;;;;;;;10381683;22;20039;-71
2023/09/19 22:22:32;;;;;;;2.35;1.10;;;;;;;;;;10377688;22;19995;-69
2023/09/19 22:26:38;;;;;;;1.10;1.00;;;;;;;;;;10382182;22;20017;-71
2023/09/19 22:30:41;;;;;;;2.28;1.02;;;;;;;;;;10377561;22;20550;-70
2023/09/19 22:34:41;;;;;;;1.53;1.00;;;;;;;;;;10380114;22;20114;-70
2023/09/19 22:38:41;;;;;;;2.83;1.20;;;;;;;;;;10380257;22;20003;-70
2023/09/19 22:42:41;;;;;;;2.70;1.02;;;;;;;;;;10381656;22;20113;-70
2023/09/19 22:46:42;;;;;;;1.92;1.20;;;;;;;;;;10378199;22;20070;-71
2023/09/19 22:50:46;;;;;;;1.95;1.00;;;;;;;;;;10379843;22;20042;-70
2023/09/19 22:54:46;;;;;;;2.70;1.10;;;;;;;;;;10377576;22;19991;-71
2023/09/19 22:58:49;;;;;;;1.70;0.85;;;;;;;;;;10378385;22;20028;-71
2023/09/19 23:02:50;;;;;;;2.50;1.20;;;;;;;;;;10375974;22;20114;-70
2023/09/19 23:06:51;;;;;;;1.80;0.98;;;;;;;;;;10380102;22;20533;-70
2023/09/19 23:10:52;;;;;;;1.25;0.90;;;;;;;;;;10381344;22;20507;-70
2023/09/19 23:14:52;;;;;;;2.35;1.05;;;;;;;;;;10383397;22;19999;-71
2023/09/19 23:18:57;;;;;;;1.30;0.90;;;;;;;;;;10378917;22;20011;-70
2023/09/19 23:22:58;;;;;;;2.72;1.15;;;;;;;;;;10378724;22;20742;-71
2023/09/19 23:26:58;;;;;;;2.13;1.00;;;;;;;;;;10376620;22;20062;-71
2023/09/19 23:31:00;;;;;;;2.15;1.10;;;;;;;;;;10377238;22;20360;-71
2023/09/19 23:35:00;;;;;;;3.45;1.10;;;;;;;;;;10379593;22;20010;-70
2023/09/19 23:39:00;;;;;;;1.73;1.15;;;;;;;;;;10378325;22;20007;-70
2023/09/19 23:43:01;;;;;;;2.38;1.20;;;;;;;;;;10379901;22;20006;-71
2023/09/19 23:47:02;;;;;;;2.45;1.10;;;;;;;;;;10378086;22;20736;-71
2023/09/19 23:51:03;;;;;;;1.67;1.08;;;;;;;;;;10379867;22;20073;-70
2023/09/19 23:55:04;;;;;;;1.65;1.00;;;;;;;;;;10381517;22;20107;-70